sensor_id;sensor_type;location;lat;lon;timestamp;temperature;humidity
24800;DHT22;12897;50.812;4.430;2023-06-19T00:01:38;20.50;99.90
24800;DHT22;12897;50.812;4.430;2023-06-19T00:04:04;20.40;99.90
24800;DHT22;12897;50.812;4.430;2023-06-19T00:06:32;20.40;99.90
24800;DHT22;12897;50.812;4.430;2023-06-19T00:08:59;20.30;99.90
24800;DHT22;12897;50.812;4.430;2023-06-19T00:11:27;20.20;99.90
24800;DHT22;12897;50.812;4.430;2023-06-19T00:13:54;20.20;99.90
24800;DHT22;12897;50.812;4.430;2023-06-19T00:16:22;20.20;99.90
24800;DHT22;12897;50.812;4.430;2023-06-19T00:18:52;20.10;99.90
24800;DHT22;12897;50.812;4.430;2023-06-19T00:21:21;20.10;99.90
24800;DHT22;12897;50.812;4.430;2023-06-19T00:23:54;20.20;99.90
24800;DHT22;12897;50.812;4.430;2023-06-19T00:26:22;20.30;99.90
24800;DHT22;12897;50.812;4.430;2023-06-19T00:28:50;20.30;99.90
24800;DHT22;12897;50.812;4.430;2023-06-19T00:31:17;20.30;99.90
24800;DHT22;12897;50.812;4.430;2023-06-19T00:33:51;20.10;99.90
24800;DHT22;12897;50.812;4.430;2023-06-19T00:36:19;20.10;99.90
24800;DHT22;12897;50.812;4.430;2023-06-19T00:38:48;20.00;99.90
24800;DHT22;12897;50.812;4.430;2023-06-19T00:41:25;19.90;99.90
24800;DHT22;12897;50.812;4.430;2023-06-19T00:43:58;19.90;99.90
24800;DHT22;12897;50.812;4.430;2023-06-19T00:46:25;19.90;99.90
24800;DHT22;12897;50.812;4.430;2023-06-19T00:48:59;19.90;99.90
24800;DHT22;12897;50.812;4.430;2023-06-19T00:51:27;19.80;99.90
24800;DHT22;12897;50.812;4.430;2023-06-19T00:53:54;19.90;99.90
24800;DHT22;12897;50.812;4.430;2023-06-19T00:56:22;19.90;99.90
24800;DHT22;12897;50.812;4.430;2023-06-19T00:58:50;19.90;99.90
24800;DHT22;12897;50.812;4.430;2023-06-19T01:01:19;19.80;99.90
24800;DHT22;12897;50.812;4.430;2023-06-19T01:03:50;19.80;99.90
24800;DHT22;12897;50.812;4.430;2023-06-19T01:06:25;19.80;99.90
24800;DHT22;12897;50.812;4.430;2023-06-19T01:09:11;19.80;99.90
24800;DHT22;12897;50.812;4.430;2023-06-19T01:11:47;19.80;99.90
24800;DHT22;12897;50.812;4.430;2023-06-19T01:14:18;19.80;99.90
24800;DHT22;12897;50.812;4.430;2023-06-19T01:16:47;19.80;99.90
24800;DHT22;12897;50.812;4.430;2023-06-19T01:19:18;19.90;99.90
24800;DHT22;12897;50.812;4.430;2023-06-19T01:21:49;19.90;99.90
24800;DHT22;12897;50.812;4.430;2023-06-19T01:24:17;20.00;99.90
24800;DHT22;12897;50.812;4.430;2023-06-19T01:26:45;20.10;99.90
24800;DHT22;12897;50.812;4.430;2023-06-19T01:29:14;20.10;99.90
24800;DHT22;12897;50.812;4.430;2023-06-19T01:32:02;20.10;99.90
24800;DHT22;12897;50.812;4.430;2023-06-19T01:34:30;20.00;99.90
24800;DHT22;12897;50.812;4.430;2023-06-19T01:37:00;20.00;99.90
24800;DHT22;12897;50.812;4.430;2023-06-19T01:39:29;20.20;99.90
24800;DHT22;12897;50.812;4.430;2023-06-19T01:41:57;20.20;99.90
24800;DHT22;12897;50.812;4.430;2023-06-19T01:44:25;20.20;99.90
24800;DHT22;12897;50.812;4.430;2023-06-19T01:46:58;20.30;99.90
24800;DHT22;12897;50.812;4.430;2023-06-19T01:49:28;20.30;99.90
24800;DHT22;12897;50.812;4.430;2023-06-19T01:51:55;20.30;99.90
24800;DHT22;12897;50.812;4.430;2023-06-19T01:54:25;20.30;99.90
24800;DHT22;12897;50.812;4.430;2023-06-19T01:56:53;20.50;99.90
24800;DHT22;12897;50.812;4.430;2023-06-19T01:59:20;20.40;99.90
24800;DHT22;12897;50.812;4.430;2023-06-19T02:01:54;20.40;99.90
24800;DHT22;12897;50.812;4.430;2023-06-19T02:04:29;20.30;99.90
24800;DHT22;12897;50.812;4.430;2023-06-19T02:07:06;20.20;99.90
24800;DHT22;12897;50.812;4.430;2023-06-19T02:09:34;20.20;99.90
24800;DHT22;12897;50.812;4.430;2023-06-19T02:12:01;20.20;99.90
24800;DHT22;12897;50.812;4.430;2023-06-19T02:14:29;20.30;99.90
24800;DHT22;12897;50.812;4.430;2023-06-19T02:16:58;20.30;99.90
24800;DHT22;12897;50.812;4.430;2023-06-19T02:19:25;20.30;99.90
24800;DHT22;12897;50.812;4.430;2023-06-19T02:21:59;20.20;99.90
24800;DHT22;12897;50.812;4.430;2023-06-19T02:24:26;20.30;99.90
24800;DHT22;12897;50.812;4.430;2023-06-19T02:26:54;20.20;99.90
24800;DHT22;12897;50.812;4.430;2023-06-19T02:29:22;20.50;99.90
24800;DHT22;12897;50.812;4.430;2023-06-19T02:31:49;20.50;99.90
24800;DHT22;12897;50.812;4.430;2023-06-19T02:34:20;20.60;99.90
24800;DHT22;12897;50.812;4.430;2023-06-19T02:36:49;20.60;99.90
24800;DHT22;12897;50.812;4.430;2023-06-19T02:39:17;20.60;99.90
24800;DHT22;12897;50.812;4.430;2023-06-19T02:41:49;20.60;99.90
24800;DHT22;12897;50.812;4.430;2023-06-19T02:44:17;20.50;99.90
24800;DHT22;12897;50.812;4.430;2023-06-19T02:46:44;20.50;99.90
24800;DHT22;12897;50.812;4.430;2023-06-19T02:49:12;20.40;99.90
24800;DHT22;12897;50.812;4.430;2023-06-19T02:51:39;20.40;99.90
24800;DHT22;12897;50.812;4.430;2023-06-19T02:54:07;20.40;99.90
24800;DHT22;12897;50.812;4.430;2023-06-19T02:56:34;20.30;99.90
24800;DHT22;12897;50.812;4.430;2023-06-19T02:59:02;20.30;99.90
24800;DHT22;12897;50.812;4.430;2023-06-19T03:01:37;20.40;99.90
24800;DHT22;12897;50.812;4.430;2023-06-19T03:04:11;20.40;99.90
24800;DHT22;12897;50.812;4.430;2023-06-19T03:06:49;20.40;99.90
24800;DHT22;12897;50.812;4.430;2023-06-19T03:09:24;20.40;99.90
24800;DHT22;12897;50.812;4.430;2023-06-19T03:12:00;20.40;99.90
24800;DHT22;12897;50.812;4.430;2023-06-19T03:14:33;20.30;99.90
24800;DHT22;12897;50.812;4.430;2023-06-19T03:17:13;20.30;99.90
24800;DHT22;12897;50.812;4.430;2023-06-19T03:19:44;20.30;99.90
24800;DHT22;12897;50.812;4.430;2023-06-19T03:22:12;20.20;99.90
24800;DHT22;12897;50.812;4.430;2023-06-19T03:24:39;20.20;99.90
24800;DHT22;12897;50.812;4.430;2023-06-19T03:27:07;20.20;99.90
24800;DHT22;12897;50.812;4.430;2023-06-19T03:29:34;20.10;99.90
24800;DHT22;12897;50.812;4.430;2023-06-19T03:32:02;20.00;99.90
24800;DHT22;12897;50.812;4.430;2023-06-19T03:34:30;19.80;99.90
24800;DHT22;12897;50.812;4.430;2023-06-19T03:36:57;19.80;99.90
24800;DHT22;12897;50.812;4.430;2023-06-19T03:39:25;19.80;99.90
24800;DHT22;12897;50.812;4.430;2023-06-19T03:41:52;19.80;99.90
24800;DHT22;12897;50.812;4.430;2023-06-19T03:44:20;19.70;99.90
24800;DHT22;12897;50.812;4.430;2023-06-19T03:46:49;19.60;99.90
24800;DHT22;12897;50.812;4.430;2023-06-19T03:49:17;19.60;99.90
24800;DHT22;12897;50.812;4.430;2023-06-19T03:51:44;19.60;99.90
24800;DHT22;12897;50.812;4.430;2023-06-19T03:54:12;19.70;99.90
24800;DHT22;12897;50.812;4.430;2023-06-19T03:56:43;19.80;99.90
24800;DHT22;12897;50.812;4.430;2023-06-19T03:59:12;19.60;99.90
24800;DHT22;12897;50.812;4.430;2023-06-19T04:01:42;19.50;99.90
24800;DHT22;12897;50.812;4.430;2023-06-19T04:04:09;19.40;99.90
24800;DHT22;12897;50.812;4.430;2023-06-19T04:06:36;19.40;99.90
24800;DHT22;12897;50.812;4.430;2023-06-19T04:09:06;19.50;99.90
24800;DHT22;12897;50.812;4.430;2023-06-19T04:11:33;19.50;99.90
24800;DHT22;12897;50.812;4.430;2023-06-19T04:14:02;19.50;99.90
24800;DHT22;12897;50.812;4.430;2023-06-19T04:16:30;19.60;99.90
24800;DHT22;12897;50.812;4.430;2023-06-19T04:18:57;19.50;99.90
24800;DHT22;12897;50.812;4.430;2023-06-19T04:21:26;19.60;99.90
24800;DHT22;12897;50.812;4.430;2023-06-19T04:23:55;19.50;99.90
24800;DHT22;12897;50.812;4.430;2023-06-19T04:26:23;19.60;99.90
24800;DHT22;12897;50.812;4.430;2023-06-19T04:28:52;19.60;99.90
24800;DHT22;12897;50.812;4.430;2023-06-19T04:31:21;19.60;99.90
24800;DHT22;12897;50.812;4.430;2023-06-19T04:33:50;19.60;99.90
24800;DHT22;12897;50.812;4.430;2023-06-19T04:36:18;19.60;99.90
24800;DHT22;12897;50.812;4.430;2023-06-19T04:38:49;19.70;99.90
24800;DHT22;12897;50.812;4.430;2023-06-19T04:41:19;19.80;99.90
24800;DHT22;12897;50.812;4.430;2023-06-19T04:43:47;19.80;99.90
24800;DHT22;12897;50.812;4.430;2023-06-19T04:46:19;19.90;99.90
24800;DHT22;12897;50.812;4.430;2023-06-19T04:48:46;19.90;99.90
24800;DHT22;12897;50.812;4.430;2023-06-19T04:51:17;19.80;99.90
24800;DHT22;12897;50.812;4.430;2023-06-19T04:53:47;19.80;99.90
24800;DHT22;12897;50.812;4.430;2023-06-19T04:56:17;19.90;99.90
24800;DHT22;12897;50.812;4.430;2023-06-19T04:58:47;19.90;99.90
24800;DHT22;12897;50.812;4.430;2023-06-19T05:01:16;19.90;99.90
24800;DHT22;12897;50.812;4.430;2023-06-19T05:03:49;20.00;99.90
24800;DHT22;12897;50.812;4.430;2023-06-19T05:06:17;20.00;99.90
24800;DHT22;12897;50.812;4.430;2023-06-19T05:08:45;20.00;99.90
24800;DHT22;12897;50.812;4.430;2023-06-19T05:11:14;20.00;99.90
24800;DHT22;12897;50.812;4.430;2023-06-19T05:13:41;20.00;99.90
24800;DHT22;12897;50.812;4.430;2023-06-19T05:16:10;19.90;99.90
24800;DHT22;12897;50.812;4.430;2023-06-19T05:18:42;19.90;99.90
24800;DHT22;12897;50.812;4.430;2023-06-19T05:21:10;20.20;99.90
24800;DHT22;12897;50.812;4.430;2023-06-19T05:23:38;21.00;99.90
24800;DHT22;12897;50.812;4.430;2023-06-19T05:26:08;21.50;99.90
24800;DHT22;12897;50.812;4.430;2023-06-19T05:28:35;21.80;99.90
24800;DHT22;12897;50.812;4.430;2023-06-19T05:31:03;22.00;99.90
24800;DHT22;12897;50.812;4.430;2023-06-19T05:33:32;22.30;99.90
24800;DHT22;12897;50.812;4.430;2023-06-19T05:36:00;22.50;99.90
24800;DHT22;12897;50.812;4.430;2023-06-19T05:38:29;21.90;99.90
24800;DHT22;12897;50.812;4.430;2023-06-19T05:40:58;21.70;99.90
24800;DHT22;12897;50.812;4.430;2023-06-19T05:43:26;21.60;99.90
24800;DHT22;12897;50.812;4.430;2023-06-19T05:45:56;21.70;99.90
24800;DHT22;12897;50.812;4.430;2023-06-19T05:48:25;22.10;99.90
24800;DHT22;12897;50.812;4.430;2023-06-19T05:50:55;22.50;99.90
24800;DHT22;12897;50.812;4.430;2023-06-19T05:53:24;22.60;99.90
24800;DHT22;12897;50.812;4.430;2023-06-19T05:55:51;22.50;99.90
24800;DHT22;12897;50.812;4.430;2023-06-19T05:58:19;22.10;99.90
24800;DHT22;12897;50.812;4.430;2023-06-19T06:00:48;21.40;99.90
24800;DHT22;12897;50.812;4.430;2023-06-19T06:03:19;21.20;99.90
24800;DHT22;12897;50.812;4.430;2023-06-19T06:05:49;20.90;99.90
24800;DHT22;12897;50.812;4.430;2023-06-19T06:08:15;20.80;99.90
24800;DHT22;12897;50.812;4.430;2023-06-19T06:10:46;20.70;99.90
24800;DHT22;12897;50.812;4.430;2023-06-19T06:13:19;20.60;99.90
24800;DHT22;12897;50.812;4.430;2023-06-19T06:15:47;20.80;99.90
24800;DHT22;12897;50.812;4.430;2023-06-19T06:18:16;20.70;99.90
24800;DHT22;12897;50.812;4.430;2023-06-19T06:20:43;20.60;99.90
24800;DHT22;12897;50.812;4.430;2023-06-19T06:23:12;20.60;99.90
24800;DHT22;12897;50.812;4.430;2023-06-19T06:25:41;20.60;99.90
24800;DHT22;12897;50.812;4.430;2023-06-19T06:28:11;20.70;99.90
24800;DHT22;12897;50.812;4.430;2023-06-19T06:30:41;20.60;99.90
24800;DHT22;12897;50.812;4.430;2023-06-19T06:33:10;20.50;99.90
24800;DHT22;12897;50.812;4.430;2023-06-19T06:35:38;20.60;99.90
24800;DHT22;12897;50.812;4.430;2023-06-19T06:38:06;20.50;99.90
24800;DHT22;12897;50.812;4.430;2023-06-19T06:40:34;20.60;99.90
24800;DHT22;12897;50.812;4.430;2023-06-19T06:43:01;20.60;99.90
24800;DHT22;12897;50.812;4.430;2023-06-19T06:45:35;20.60;99.90
24800;DHT22;12897;50.812;4.430;2023-06-19T06:48:05;20.70;99.90
24800;DHT22;12897;50.812;4.430;2023-06-19T06:50:33;20.80;99.90
24800;DHT22;12897;50.812;4.430;2023-06-19T06:53:03;20.90;99.90
24800;DHT22;12897;50.812;4.430;2023-06-19T06:55:31;20.70;99.90
24800;DHT22;12897;50.812;4.430;2023-06-19T06:58:01;20.70;99.90
24800;DHT22;12897;50.812;4.430;2023-06-19T07:00:31;20.90;99.90
24800;DHT22;12897;50.812;4.430;2023-06-19T07:03:06;21.40;99.90
24800;DHT22;12897;50.812;4.430;2023-06-19T07:05:36;21.40;99.90
24800;DHT22;12897;50.812;4.430;2023-06-19T07:08:08;21.30;99.90
24800;DHT22;12897;50.812;4.430;2023-06-19T07:10:32;21.20;99.90
24800;DHT22;12897;50.812;4.430;2023-06-19T07:13:00;21.30;99.90
24800;DHT22;12897;50.812;4.430;2023-06-19T07:15:28;21.40;99.90
24800;DHT22;12897;50.812;4.430;2023-06-19T07:17:56;21.30;99.90
24800;DHT22;12897;50.812;4.430;2023-06-19T07:20:24;21.30;99.90
24800;DHT22;12897;50.812;4.430;2023-06-19T07:22:53;21.40;99.90
24800;DHT22;12897;50.812;4.430;2023-06-19T07:25:23;21.50;99.90
24800;DHT22;12897;50.812;4.430;2023-06-19T07:27:52;21.60;99.90
24800;DHT22;12897;50.812;4.430;2023-06-19T07:30:19;21.60;99.90
24800;DHT22;12897;50.812;4.430;2023-06-19T07:32:47;21.70;99.90
24800;DHT22;12897;50.812;4.430;2023-06-19T07:35:15;21.90;99.90
24800;DHT22;12897;50.812;4.430;2023-06-19T07:37:45;22.10;99.90
24800;DHT22;12897;50.812;4.430;2023-06-19T07:40:15;22.50;99.90
24800;DHT22;12897;50.812;4.430;2023-06-19T07:42:43;22.50;99.90
24800;DHT22;12897;50.812;4.430;2023-06-19T07:45:11;22.40;99.90
24800;DHT22;12897;50.812;4.430;2023-06-19T07:47:39;22.00;99.90
24800;DHT22;12897;50.812;4.430;2023-06-19T07:50:09;21.70;99.90
24800;DHT22;12897;50.812;4.430;2023-06-19T07:52:43;22.00;99.90
24800;DHT22;12897;50.812;4.430;2023-06-19T07:55:08;21.90;99.90
24800;DHT22;12897;50.812;4.430;2023-06-19T07:57:37;22.20;99.90
24800;DHT22;12897;50.812;4.430;2023-06-19T08:00:13;22.40;99.90
24800;DHT22;12897;50.812;4.430;2023-06-19T08:02:42;22.50;99.90
24800;DHT22;12897;50.812;4.430;2023-06-19T08:05:11;22.50;99.90
24800;DHT22;12897;50.812;4.430;2023-06-19T08:07:38;22.90;99.90
24800;DHT22;12897;50.812;4.430;2023-06-19T08:10:06;23.00;99.90
24800;DHT22;12897;50.812;4.430;2023-06-19T08:12:34;23.30;99.90
24800;DHT22;12897;50.812;4.430;2023-06-19T08:15:03;23.50;99.90
24800;DHT22;12897;50.812;4.430;2023-06-19T08:17:34;23.50;99.90
24800;DHT22;12897;50.812;4.430;2023-06-19T08:20:02;23.50;99.90
24800;DHT22;12897;50.812;4.430;2023-06-19T08:22:31;23.80;99.90
24800;DHT22;12897;50.812;4.430;2023-06-19T08:25:05;24.30;99.90
24800;DHT22;12897;50.812;4.430;2023-06-19T08:27:32;24.20;99.90
24800;DHT22;12897;50.812;4.430;2023-06-19T08:30:01;23.80;99.90
24800;DHT22;12897;50.812;4.430;2023-06-19T08:32:29;23.60;99.90
24800;DHT22;12897;50.812;4.430;2023-06-19T08:34:57;23.60;99.90
24800;DHT22;12897;50.812;4.430;2023-06-19T08:37:24;23.20;99.90
24800;DHT22;12897;50.812;4.430;2023-06-19T08:39:52;23.10;99.90
24800;DHT22;12897;50.812;4.430;2023-06-19T08:42:21;23.30;99.90
24800;DHT22;12897;50.812;4.430;2023-06-19T08:44:53;23.20;99.90
24800;DHT22;12897;50.812;4.430;2023-06-19T08:47:21;23.30;99.90
24800;DHT22;12897;50.812;4.430;2023-06-19T08:49:52;23.40;99.90
24800;DHT22;12897;50.812;4.430;2023-06-19T08:52:18;23.10;99.90
24800;DHT22;12897;50.812;4.430;2023-06-19T08:54:46;22.90;99.90
24800;DHT22;12897;50.812;4.430;2023-06-19T08:57:17;23.10;99.90
24800;DHT22;12897;50.812;4.430;2023-06-19T08:59:55;23.50;99.90
24800;DHT22;12897;50.812;4.430;2023-06-19T09:02:46;23.80;99.90
24800;DHT22;12897;50.812;4.430;2023-06-19T09:05:18;24.00;99.90
24800;DHT22;12897;50.812;4.430;2023-06-19T09:07:57;23.80;99.90
24800;DHT22;12897;50.812;4.430;2023-06-19T09:10:27;23.60;99.90
24800;DHT22;12897;50.812;4.430;2023-06-19T09:13:01;23.40;99.90
24800;DHT22;12897;50.812;4.430;2023-06-19T09:15:32;23.40;99.90
24800;DHT22;12897;50.812;4.430;2023-06-19T09:18:10;23.20;99.90
24800;DHT22;12897;50.812;4.430;2023-06-19T09:20:42;23.40;99.90
24800;DHT22;12897;50.812;4.430;2023-06-19T09:23:16;23.70;99.90
24800;DHT22;12897;50.812;4.430;2023-06-19T09:25:53;23.80;99.90
24800;DHT22;12897;50.812;4.430;2023-06-19T09:28:24;24.00;99.90
24800;DHT22;12897;50.812;4.430;2023-06-19T09:31:02;23.90;99.90
24800;DHT22;12897;50.812;4.430;2023-06-19T09:33:38;24.00;99.90
24800;DHT22;12897;50.812;4.430;2023-06-19T09:36:15;24.50;99.90
24800;DHT22;12897;50.812;4.430;2023-06-19T09:38:45;24.60;99.90
24800;DHT22;12897;50.812;4.430;2023-06-19T09:41:24;24.80;99.90
24800;DHT22;12897;50.812;4.430;2023-06-19T09:43:55;24.80;99.90
24800;DHT22;12897;50.812;4.430;2023-06-19T09:46:26;25.10;99.90
24800;DHT22;12897;50.812;4.430;2023-06-19T09:48:56;25.30;99.90
24800;DHT22;12897;50.812;4.430;2023-06-19T09:51:32;25.20;99.90
24800;DHT22;12897;50.812;4.430;2023-06-19T09:54:00;25.20;99.90
24800;DHT22;12897;50.812;4.430;2023-06-19T09:56:30;25.00;99.90
24800;DHT22;12897;50.812;4.430;2023-06-19T09:59:00;25.00;99.90
24800;DHT22;12897;50.812;4.430;2023-06-19T10:01:30;24.90;99.90
24800;DHT22;12897;50.812;4.430;2023-06-19T10:04:03;25.00;99.90
24800;DHT22;12897;50.812;4.430;2023-06-19T10:06:31;25.00;99.90
24800;DHT22;12897;50.812;4.430;2023-06-19T10:09:07;24.90;99.90
24800;DHT22;12897;50.812;4.430;2023-06-19T10:11:49;25.40;99.90
24800;DHT22;12897;50.812;4.430;2023-06-19T10:14:22;25.40;99.90
24800;DHT22;12897;50.812;4.430;2023-06-19T10:16:51;25.10;99.90
24800;DHT22;12897;50.812;4.430;2023-06-19T10:19:23;24.90;99.90
24800;DHT22;12897;50.812;4.430;2023-06-19T10:21:54;24.80;99.90
24800;DHT22;12897;50.812;4.430;2023-06-19T10:24:25;24.60;99.90
24800;DHT22;12897;50.812;4.430;2023-06-19T10:27:03;24.90;99.90
24800;DHT22;12897;50.812;4.430;2023-06-19T10:29:41;25.00;99.90
24800;DHT22;12897;50.812;4.430;2023-06-19T10:32:08;24.70;99.90
24800;DHT22;12897;50.812;4.430;2023-06-19T10:34:36;24.40;99.90
24800;DHT22;12897;50.812;4.430;2023-06-19T10:37:06;24.60;99.90
24800;DHT22;12897;50.812;4.430;2023-06-19T10:39:33;24.60;99.90
24800;DHT22;12897;50.812;4.430;2023-06-19T10:42:05;24.50;99.90
24800;DHT22;12897;50.812;4.430;2023-06-19T10:44:31;24.40;99.90
24800;DHT22;12897;50.812;4.430;2023-06-19T10:46:59;24.60;99.90
24800;DHT22;12897;50.812;4.430;2023-06-19T10:49:27;24.40;99.90
24800;DHT22;12897;50.812;4.430;2023-06-19T10:51:55;24.50;99.90
24800;DHT22;12897;50.812;4.430;2023-06-19T10:54:25;24.50;99.90
24800;DHT22;12897;50.812;4.430;2023-06-19T10:56:55;24.60;99.90
24800;DHT22;12897;50.812;4.430;2023-06-19T10:59:24;24.60;99.90
24800;DHT22;12897;50.812;4.430;2023-06-19T11:01:52;24.90;99.90
24800;DHT22;12897;50.812;4.430;2023-06-19T11:04:26;25.00;99.90
24800;DHT22;12897;50.812;4.430;2023-06-19T11:07:06;25.00;99.90
24800;DHT22;12897;50.812;4.430;2023-06-19T11:09:43;24.90;99.90
24800;DHT22;12897;50.812;4.430;2023-06-19T11:12:11;24.70;99.90
24800;DHT22;12897;50.812;4.430;2023-06-19T11:14:42;24.80;99.90
24800;DHT22;12897;50.812;4.430;2023-06-19T11:17:11;25.00;99.90
24800;DHT22;12897;50.812;4.430;2023-06-19T11:19:39;25.00;99.90
24800;DHT22;12897;50.812;4.430;2023-06-19T11:22:08;24.80;99.90
24800;DHT22;12897;50.812;4.430;2023-06-19T11:24:42;24.80;99.90
24800;DHT22;12897;50.812;4.430;2023-06-19T11:27:13;25.10;99.90
24800;DHT22;12897;50.812;4.430;2023-06-19T11:29:38;25.10;99.90
24800;DHT22;12897;50.812;4.430;2023-06-19T11:32:16;25.10;99.90
24800;DHT22;12897;50.812;4.430;2023-06-19T11:34:46;25.20;99.90
24800;DHT22;12897;50.812;4.430;2023-06-19T11:37:16;25.10;99.90
24800;DHT22;12897;50.812;4.430;2023-06-19T11:39:49;25.00;99.90
24800;DHT22;12897;50.812;4.430;2023-06-19T11:42:17;25.00;99.90
24800;DHT22;12897;50.812;4.430;2023-06-19T11:44:55;25.10;99.90
24800;DHT22;12897;50.812;4.430;2023-06-19T11:47:25;25.10;99.90
24800;DHT22;12897;50.812;4.430;2023-06-19T11:49:54;25.20;99.90
24800;DHT22;12897;50.812;4.430;2023-06-19T11:52:22;25.40;99.90
24800;DHT22;12897;50.812;4.430;2023-06-19T11:54:51;25.60;99.90
24800;DHT22;12897;50.812;4.430;2023-06-19T11:57:23;25.60;99.90
24800;DHT22;12897;50.812;4.430;2023-06-19T11:59:49;25.70;99.90
24800;DHT22;12897;50.812;4.430;2023-06-19T12:02:18;25.60;99.90
24800;DHT22;12897;50.812;4.430;2023-06-19T12:04:46;25.40;99.90
24800;DHT22;12897;50.812;4.430;2023-06-19T12:07:15;25.50;99.90
24800;DHT22;12897;50.812;4.430;2023-06-19T12:09:45;25.80;99.90
24800;DHT22;12897;50.812;4.430;2023-06-19T12:12:11;26.10;99.90
24800;DHT22;12897;50.812;4.430;2023-06-19T12:14:39;26.20;99.90
24800;DHT22;12897;50.812;4.430;2023-06-19T12:17:07;26.10;99.90
24800;DHT22;12897;50.812;4.430;2023-06-19T12:19:40;26.00;99.90
24800;DHT22;12897;50.812;4.430;2023-06-19T12:22:17;25.90;99.90
24800;DHT22;12897;50.812;4.430;2023-06-19T12:24:55;25.70;99.90
24800;DHT22;12897;50.812;4.430;2023-06-19T12:27:30;25.80;99.90
24800;DHT22;12897;50.812;4.430;2023-06-19T12:30:05;25.80;99.90
24800;DHT22;12897;50.812;4.430;2023-06-19T12:32:40;25.70;99.90
24800;DHT22;12897;50.812;4.430;2023-06-19T12:35:20;25.80;99.90
24800;DHT22;12897;50.812;4.430;2023-06-19T12:37:52;25.70;99.90
24800;DHT22;12897;50.812;4.430;2023-06-19T12:40:22;26.00;99.90
24800;DHT22;12897;50.812;4.430;2023-06-19T12:42:49;26.10;99.90
24800;DHT22;12897;50.812;4.430;2023-06-19T12:45:17;26.10;99.90
24800;DHT22;12897;50.812;4.430;2023-06-19T12:47:45;26.20;99.90
24800;DHT22;12897;50.812;4.430;2023-06-19T12:50:17;26.40;99.90
24800;DHT22;12897;50.812;4.430;2023-06-19T12:52:44;26.60;99.90
24800;DHT22;12897;50.812;4.430;2023-06-19T12:55:12;26.60;99.90
24800;DHT22;12897;50.812;4.430;2023-06-19T12:57:41;26.50;99.90
24800;DHT22;12897;50.812;4.430;2023-06-19T13:00:12;26.30;99.90
24800;DHT22;12897;50.812;4.430;2023-06-19T13:02:40;26.00;99.90
24800;DHT22;12897;50.812;4.430;2023-06-19T13:05:09;25.80;99.90
24800;DHT22;12897;50.812;4.430;2023-06-19T13:07:37;26.10;99.90
24800;DHT22;12897;50.812;4.430;2023-06-19T13:10:05;26.30;99.90
24800;DHT22;12897;50.812;4.430;2023-06-19T13:12:34;26.50;99.90
24800;DHT22;12897;50.812;4.430;2023-06-19T13:15:02;26.50;99.90
24800;DHT22;12897;50.812;4.430;2023-06-19T13:17:31;26.60;99.90
24800;DHT22;12897;50.812;4.430;2023-06-19T13:19:59;26.60;99.90
24800;DHT22;12897;50.812;4.430;2023-06-19T13:22:27;26.60;99.90
24800;DHT22;12897;50.812;4.430;2023-06-19T13:24:56;26.50;99.90
24800;DHT22;12897;50.812;4.430;2023-06-19T13:27:28;26.60;99.90
24800;DHT22;12897;50.812;4.430;2023-06-19T13:30:13;26.50;99.90
24800;DHT22;12897;50.812;4.430;2023-06-19T13:32:45;26.40;99.90
24800;DHT22;12897;50.812;4.430;2023-06-19T13:35:12;26.40;99.90
24800;DHT22;12897;50.812;4.430;2023-06-19T13:37:40;26.20;99.90
24800;DHT22;12897;50.812;4.430;2023-06-19T13:40:10;26.40;99.90
24800;DHT22;12897;50.812;4.430;2023-06-19T13:42:41;26.50;99.90
24800;DHT22;12897;50.812;4.430;2023-06-19T13:45:24;26.70;99.90
24800;DHT22;12897;50.812;4.430;2023-06-19T13:47:54;26.60;98.40
24800;DHT22;12897;50.812;4.430;2023-06-19T13:50:33;26.60;99.90
24800;DHT22;12897;50.812;4.430;2023-06-19T13:53:09;26.50;99.90
24800;DHT22;12897;50.812;4.430;2023-06-19T13:55:39;26.50;99.90
24800;DHT22;12897;50.812;4.430;2023-06-19T13:58:20;27.00;99.90
24800;DHT22;12897;50.812;4.430;2023-06-19T14:00:57;27.00;99.90
24800;DHT22;12897;50.812;4.430;2023-06-19T14:03:26;26.90;99.90
24800;DHT22;12897;50.812;4.430;2023-06-19T14:05:55;26.80;99.90
24800;DHT22;12897;50.812;4.430;2023-06-19T14:08:23;26.80;99.90
24800;DHT22;12897;50.812;4.430;2023-06-19T14:10:57;26.70;99.90
24800;DHT22;12897;50.812;4.430;2023-06-19T14:13:25;26.90;99.90
24800;DHT22;12897;50.812;4.430;2023-06-19T14:16:02;27.20;99.90
24800;DHT22;12897;50.812;4.430;2023-06-19T14:18:27;27.20;99.90
24800;DHT22;12897;50.812;4.430;2023-06-19T14:20:55;27.40;99.90
24800;DHT22;12897;50.812;4.430;2023-06-19T14:23:28;27.50;99.80
24800;DHT22;12897;50.812;4.430;2023-06-19T14:25:54;27.60;99.50
24800;DHT22;12897;50.812;4.430;2023-06-19T14:28:24;27.80;98.70
24800;DHT22;12897;50.812;4.430;2023-06-19T14:30:52;28.00;99.00
24800;DHT22;12897;50.812;4.430;2023-06-19T14:33:21;28.20;98.80
24800;DHT22;12897;50.812;4.430;2023-06-19T14:35:49;28.20;98.00
24800;DHT22;12897;50.812;4.430;2023-06-19T14:38:18;28.30;97.80
24800;DHT22;12897;50.812;4.430;2023-06-19T14:40:46;28.30;97.20
24800;DHT22;12897;50.812;4.430;2023-06-19T14:43:16;28.40;97.40
24800;DHT22;12897;50.812;4.430;2023-06-19T14:45:44;28.50;96.50
24800;DHT22;12897;50.812;4.430;2023-06-19T14:48:12;28.50;96.70
24800;DHT22;12897;50.812;4.430;2023-06-19T14:50:41;28.60;95.00
24800;DHT22;12897;50.812;4.430;2023-06-19T14:53:11;28.80;94.70
24800;DHT22;12897;50.812;4.430;2023-06-19T14:55:39;28.70;94.80
24800;DHT22;12897;50.812;4.430;2023-06-19T14:58:09;28.40;94.20
24800;DHT22;12897;50.812;4.430;2023-06-19T15:00:36;28.40;94.10
24800;DHT22;12897;50.812;4.430;2023-06-19T15:03:05;28.30;95.00
24800;DHT22;12897;50.812;4.430;2023-06-19T15:05:35;28.10;95.90
24800;DHT22;12897;50.812;4.430;2023-06-19T15:08:04;28.20;96.50
24800;DHT22;12897;50.812;4.430;2023-06-19T15:10:36;28.60;95.20
24800;DHT22;12897;50.812;4.430;2023-06-19T15:13:04;28.80;94.00
24800;DHT22;12897;50.812;4.430;2023-06-19T15:18:23;28.90;93.50
24800;DHT22;12897;50.812;4.430;2023-06-19T15:20:50;28.60;94.20
24800;DHT22;12897;50.812;4.430;2023-06-19T15:23:18;28.70;94.20
24800;DHT22;12897;50.812;4.430;2023-06-19T15:25:46;28.60;94.30
24800;DHT22;12897;50.812;4.430;2023-06-19T15:28:14;28.80;93.40
24800;DHT22;12897;50.812;4.430;2023-06-19T15:30:42;28.90;92.90
24800;DHT22;12897;50.812;4.430;2023-06-19T15:33:10;29.20;93.00
24800;DHT22;12897;50.812;4.430;2023-06-19T15:35:39;28.90;92.80
24800;DHT22;12897;50.812;4.430;2023-06-19T15:38:08;28.90;93.10
24800;DHT22;12897;50.812;4.430;2023-06-19T15:40:37;29.00;93.00
24800;DHT22;12897;50.812;4.430;2023-06-19T15:43:06;29.40;92.50
24800;DHT22;12897;50.812;4.430;2023-06-19T15:45:34;29.30;93.10
24800;DHT22;12897;50.812;4.430;2023-06-19T15:48:06;28.80;93.80
24800;DHT22;12897;50.812;4.430;2023-06-19T15:50:35;29.00;93.70